sensor_id;sensor_type;location;lat;lon;timestamp;temperature;humidity
23685;DHT22;12020;51.384;6.908;2024-01-11T01:30:31;-3.20;99.90
23685;DHT22;12020;51.384;6.908;2024-01-11T01:33:46;-3.20;99.90
23685;DHT22;12020;51.384;6.908;2024-01-11T01:37:08;-3.30;99.90
23685;DHT22;12020;51.384;6.908;2024-01-11T01:43:21;-3.40;99.90
23685;DHT22;12020;51.384;6.908;2024-01-11T01:46:47;-3.40;99.90
23685;DHT22;12020;51.384;6.908;2024-01-11T01:53:29;-3.30;99.90
23685;DHT22;12020;51.384;6.908;2024-01-11T06:25:01;-4.40;99.90
23685;DHT22;12020;51.384;6.908;2024-01-11T06:27:30;-4.40;99.90
23685;DHT22;12020;51.384;6.908;2024-01-11T06:29:58;-4.30;99.90
23685;DHT22;12020;51.384;6.908;2024-01-11T06:32:31;-4.40;99.90
23685;DHT22;12020;51.384;6.908;2024-01-11T06:35:00;-4.80;99.90
23685;DHT22;12020;51.384;6.908;2024-01-11T06:37:39;-4.40;99.90
23685;DHT22;12020;51.384;6.908;2024-01-11T06:40:09;-4.30;99.90
23685;DHT22;12020;51.384;6.908;2024-01-11T06:42:38;-4.10;99.90
23685;DHT22;12020;51.384;6.908;2024-01-11T06:45:06;-4.30;99.90
23685;DHT22;12020;51.384;6.908;2024-01-11T06:47:32;-4.20;99.90
23685;DHT22;12020;51.384;6.908;2024-01-11T06:50:39;-4.10;99.90
23685;DHT22;12020;51.384;6.908;2024-01-11T06:53:54;-4.10;99.90
23685;DHT22;12020;51.384;6.908;2024-01-11T06:57:25;-4.10;99.90
23685;DHT22;12020;51.384;6.908;2024-01-11T07:04:10;-4.30;99.90
23685;DHT22;12020;51.384;6.908;2024-01-11T07:07:41;-4.50;99.90
23685;DHT22;12020;51.384;6.908;2024-01-11T07:11:02;-4.50;99.90
23685;DHT22;12020;51.384;6.908;2024-01-11T07:13:31;-4.40;99.90
23685;DHT22;12020;51.384;6.908;2024-01-11T07:15:58;-4.40;99.90
23685;DHT22;12020;51.384;6.908;2024-01-11T07:18:47;-4.50;99.90
23685;DHT22;12020;51.384;6.908;2024-01-11T07:22:05;-4.50;99.90
23685;DHT22;12020;51.384;6.908;2024-01-11T07:25:20;-4.50;99.90
23685;DHT22;12020;51.384;6.908;2024-01-11T07:29:01;-4.30;99.90
23685;DHT22;12020;51.384;6.908;2024-01-11T07:32:19;-4.40;99.90
23685;DHT22;12020;51.384;6.908;2024-01-11T07:35:20;-4.00;99.90
23685;DHT22;12020;51.384;6.908;2024-01-11T07:38:43;-4.40;99.90
23685;DHT22;12020;51.384;6.908;2024-01-11T07:42:35;-4.40;99.90
23685;DHT22;12020;51.384;6.908;2024-01-11T07:46:14;-4.40;99.90
23685;DHT22;12020;51.384;6.908;2024-01-11T07:49:51;-4.50;99.90
23685;DHT22;12020;51.384;6.908;2024-01-11T07:53:30;-4.20;99.90
23685;DHT22;12020;51.384;6.908;2024-01-11T07:56:22;-4.40;99.90
23685;DHT22;12020;51.384;6.908;2024-01-11T07:59:42;-4.40;99.90
23685;DHT22;12020;51.384;6.908;2024-01-11T08:02:42;-4.40;99.90
23685;DHT22;12020;51.384;6.908;2024-01-11T08:05:49;-4.40;99.90
23685;DHT22;12020;51.384;6.908;2024-01-11T08:08:18;-4.40;99.90
23685;DHT22;12020;51.384;6.908;2024-01-11T08:11:19;-4.70;99.90
23685;DHT22;12020;51.384;6.908;2024-01-11T08:14:36;-4.40;99.90
23685;DHT22;12020;51.384;6.908;2024-01-11T08:17:46;-4.40;99.90
23685;DHT22;12020;51.384;6.908;2024-01-11T08:21:02;-4.30;99.90
23685;DHT22;12020;51.384;6.908;2024-01-11T08:26:31;-4.30;99.90
23685;DHT22;12020;51.384;6.908;2024-01-11T08:29:59;-4.30;99.90
23685;DHT22;12020;51.384;6.908;2024-01-11T08:33:05;-4.30;99.90
23685;DHT22;12020;51.384;6.908;2024-01-11T08:35:42;-4.20;99.90
23685;DHT22;12020;51.384;6.908;2024-01-11T08:39:06;-4.10;99.90
23685;DHT22;12020;51.384;6.908;2024-01-11T08:42:37;-4.10;99.90
23685;DHT22;12020;51.384;6.908;2024-01-11T08:45:07;-3.70;99.90
23685;DHT22;12020;51.384;6.908;2024-01-11T08:47:56;-4.00;99.90
23685;DHT22;12020;51.384;6.908;2024-01-11T08:50:22;-3.90;99.90
23685;DHT22;12020;51.384;6.908;2024-01-11T08:52:51;-4.00;99.90
23685;DHT22;12020;51.384;6.908;2024-01-11T08:55:18;-3.80;99.90
23685;DHT22;12020;51.384;6.908;2024-01-11T08:58:05;-4.00;99.90
23685;DHT22;12020;51.384;6.908;2024-01-11T09:00:38;-3.80;99.90
23685;DHT22;12020;51.384;6.908;2024-01-11T09:03:08;-3.70;99.90
23685;DHT22;12020;51.384;6.908;2024-01-11T09:05:36;-3.80;99.90
23685;DHT22;12020;51.384;6.908;2024-01-11T09:08:03;-3.70;99.90
23685;DHT22;12020;51.384;6.908;2024-01-11T09:10:32;-3.60;99.90
23685;DHT22;12020;51.384;6.908;2024-01-11T09:13:07;-3.50;99.90
23685;DHT22;12020;51.384;6.908;2024-01-11T09:15:35;-3.40;99.90
23685;DHT22;12020;51.384;6.908;2024-01-11T09:18:03;-3.40;99.90
23685;DHT22;12020;51.384;6.908;2024-01-11T09:21:07;-3.30;99.90
23685;DHT22;12020;51.384;6.908;2024-01-11T09:23:54;-2.80;99.90
23685;DHT22;12020;51.384;6.908;2024-01-11T09:27:01;-2.80;99.90
23685;DHT22;12020;51.384;6.908;2024-01-11T09:29:43;-2.80;99.90
23685;DHT22;12020;51.384;6.908;2024-01-11T09:32:30;-2.50;99.90
23685;DHT22;12020;51.384;6.908;2024-01-11T09:34:59;-2.40;99.90
23685;DHT22;12020;51.384;6.908;2024-01-11T09:37:46;-2.00;99.90
23685;DHT22;12020;51.384;6.908;2024-01-11T09:40:22;-1.70;99.90
23685;DHT22;12020;51.384;6.908;2024-01-11T09:42:51;-1.50;99.90
23685;DHT22;12020;51.384;6.908;2024-01-11T09:45:17;-1.20;99.90
23685;DHT22;12020;51.384;6.908;2024-01-11T09:47:49;-1.00;99.90
23685;DHT22;12020;51.384;6.908;2024-01-11T09:50:27;-1.40;99.90
23685;DHT22;12020;51.384;6.908;2024-01-11T09:53:21;-1.20;99.90
23685;DHT22;12020;51.384;6.908;2024-01-11T09:55:50;-1.10;99.90
23685;DHT22;12020;51.384;6.908;2024-01-11T09:58:18;-1.00;99.90
23685;DHT22;12020;51.384;6.908;2024-01-11T10:00:46;-0.80;99.90
23685;DHT22;12020;51.384;6.908;2024-01-11T10:03:15;-1.00;99.90
23685;DHT22;12020;51.384;6.908;2024-01-11T10:05:41;-0.80;99.90
23685;DHT22;12020;51.384;6.908;2024-01-11T10:08:33;-1.10;99.90
23685;DHT22;12020;51.384;6.908;2024-01-11T10:11:10;-1.00;99.90
23685;DHT22;12020;51.384;6.908;2024-01-11T10:14:01;-1.10;99.90
23685;DHT22;12020;51.384;6.908;2024-01-11T10:16:59;-1.10;99.90
23685;DHT22;12020;51.384;6.908;2024-01-11T10:20:22;-0.80;99.90
23685;DHT22;12020;51.384;6.908;2024-01-11T10:23:10;-1.40;99.90
23685;DHT22;12020;51.384;6.908;2024-01-11T10:26:11;-1.20;99.90
23685;DHT22;12020;51.384;6.908;2024-01-11T10:28:37;-0.90;99.90
23685;DHT22;12020;51.384;6.908;2024-01-11T10:31:05;-1.20;99.90
23685;DHT22;12020;51.384;6.908;2024-01-11T10:33:34;-1.10;99.90
23685;DHT22;12020;51.384;6.908;2024-01-11T10:36:01;-1.10;99.90
23685;DHT22;12020;51.384;6.908;2024-01-11T10:38:49;-1.10;99.90
23685;DHT22;12020;51.384;6.908;2024-01-11T10:41:18;-0.80;99.90
23685;DHT22;12020;51.384;6.908;2024-01-11T10:43:48;-0.90;99.90
23685;DHT22;12020;51.384;6.908;2024-01-11T10:46:25;-0.80;99.90
23685;DHT22;12020;51.384;6.908;2024-01-11T10:48:56;-0.90;99.90
23685;DHT22;12020;51.384;6.908;2024-01-11T10:51:49;-0.80;99.90
23685;DHT22;12020;51.384;6.908;2024-01-11T10:54:20;-0.70;99.90
23685;DHT22;12020;51.384;6.908;2024-01-11T10:57:02;-0.60;99.90
23685;DHT22;12020;51.384;6.908;2024-01-11T10:59:37;-0.60;99.90
23685;DHT22;12020;51.384;6.908;2024-01-11T11:02:29;-0.50;99.90
23685;DHT22;12020;51.384;6.908;2024-01-11T11:05:01;-0.40;99.90
23685;DHT22;12020;51.384;6.908;2024-01-11T11:07:33;-0.30;99.90
23685;DHT22;12020;51.384;6.908;2024-01-11T11:10:02;-0.20;99.90
23685;DHT22;12020;51.384;6.908;2024-01-11T11:13:00;-0.10;99.90
23685;DHT22;12020;51.384;6.908;2024-01-11T11:15:29;0.00;99.90
23685;DHT22;12020;51.384;6.908;2024-01-11T11:17:56;0.20;99.90
23685;DHT22;12020;51.384;6.908;2024-01-11T11:20:45;0.10;99.90
23685;DHT22;12020;51.384;6.908;2024-01-11T11:23:23;0.10;99.90
23685;DHT22;12020;51.384;6.908;2024-01-11T11:26:17;0.10;99.90
23685;DHT22;12020;51.384;6.908;2024-01-11T11:28:51;0.20;99.90
23685;DHT22;12020;51.384;6.908;2024-01-11T11:31:43;0.30;99.90
23685;DHT22;12020;51.384;6.908;2024-01-11T11:34:45;0.30;99.90
23685;DHT22;12020;51.384;6.908;2024-01-11T11:38:26;0.40;99.90
23685;DHT22;12020;51.384;6.908;2024-01-11T11:42:00;0.30;99.90
23685;DHT22;12020;51.384;6.908;2024-01-11T11:59:06;0.60;99.90
23685;DHT22;12020;51.384;6.908;2024-01-11T12:02:41;0.70;99.90
23685;DHT22;12020;51.384;6.908;2024-01-11T12:09:10;1.00;99.90
23685;DHT22;12020;51.384;6.908;2024-01-11T12:12:50;0.80;99.90
23685;DHT22;12020;51.384;6.908;2024-01-11T12:23:10;0.70;99.90
23685;DHT22;12020;51.384;6.908;2024-01-11T12:25:36;1.20;99.90
23685;DHT22;12020;51.384;6.908;2024-01-11T12:28:05;1.30;99.90
23685;DHT22;12020;51.384;6.908;2024-01-11T12:30:34;1.20;99.90
23685;DHT22;12020;51.384;6.908;2024-01-11T12:33:07;1.20;99.90
23685;DHT22;12020;51.384;6.908;2024-01-11T12:35:35;1.10;99.90
23685;DHT22;12020;51.384;6.908;2024-01-11T12:38:06;1.10;99.90
23685;DHT22;12020;51.384;6.908;2024-01-11T12:40:37;1.10;99.90
23685;DHT22;12020;51.384;6.908;2024-01-11T12:43:03;1.00;99.90
23685;DHT22;12020;51.384;6.908;2024-01-11T12:45:31;1.20;99.90
23685;DHT22;12020;51.384;6.908;2024-01-11T12:48:18;1.00;99.90
23685;DHT22;12020;51.384;6.908;2024-01-11T12:50:58;1.00;99.90
23685;DHT22;12020;51.384;6.908;2024-01-11T12:53:36;0.90;99.90
23685;DHT22;12020;51.384;6.908;2024-01-11T12:56:20;1.00;99.90
23685;DHT22;12020;51.384;6.908;2024-01-11T12:58:51;1.00;99.90
23685;DHT22;12020;51.384;6.908;2024-01-11T13:01:23;1.00;99.90
23685;DHT22;12020;51.384;6.908;2024-01-11T13:03:49;1.00;99.90
23685;DHT22;12020;51.384;6.908;2024-01-11T13:06:20;1.00;99.90
23685;DHT22;12020;51.384;6.908;2024-01-11T13:08:49;0.90;99.90
23685;DHT22;12020;51.384;6.908;2024-01-11T13:11:19;1.20;99.90
23685;DHT22;12020;51.384;6.908;2024-01-11T13:13:46;1.10;99.90
23685;DHT22;12020;51.384;6.908;2024-01-11T13:16:17;1.10;99.90
23685;DHT22;12020;51.384;6.908;2024-01-11T13:18:46;1.20;99.90
23685;DHT22;12020;51.384;6.908;2024-01-11T13:34:52;1.10;99.90
23685;DHT22;12020;51.384;6.908;2024-01-11T16:26:40;0.60;99.90
23685;DHT22;12020;51.384;6.908;2024-01-11T16:29:21;1.10;99.90
23685;DHT22;12020;51.384;6.908;2024-01-11T16:32:43;1.60;99.90
23685;DHT22;12020;51.384;6.908;2024-01-11T16:35:43;1.50;99.90
23685;DHT22;12020;51.384;6.908;2024-01-11T16:38:24;1.30;99.90
23685;DHT22;12020;51.384;6.908;2024-01-11T16:44:08;1.10;99.90
23685;DHT22;12020;51.384;6.908;2024-01-11T16:46:37;1.10;99.90
23685;DHT22;12020;51.384;6.908;2024-01-11T16:49:28;1.10;99.90
23685;DHT22;12020;51.384;6.908;2024-01-11T16:52:40;1.10;99.90
23685;DHT22;12020;51.384;6.908;2024-01-11T17:06:04;1.00;99.90
23685;DHT22;12020;51.384;6.908;2024-01-11T17:08:36;1.00;99.90
23685;DHT22;12020;51.384;6.908;2024-01-11T17:11:10;1.00;99.90
23685;DHT22;12020;51.384;6.908;2024-01-11T17:13:38;1.00;99.90
23685;DHT22;12020;51.384;6.908;2024-01-11T17:16:23;1.00;99.90
23685;DHT22;12020;51.384;6.908;2024-01-11T17:19:04;1.00;99.90
23685;DHT22;12020;51.384;6.908;2024-01-11T17:21:31;1.00;99.90
23685;DHT22;12020;51.384;6.908;2024-01-11T17:23:59;1.00;99.90
23685;DHT22;12020;51.384;6.908;2024-01-11T17:26:28;1.00;99.90
23685;DHT22;12020;51.384;6.908;2024-01-11T17:28:59;1.10;99.90
23685;DHT22;12020;51.384;6.908;2024-01-11T17:32:13;1.00;99.90
23685;DHT22;12020;51.384;6.908;2024-01-11T17:34:39;1.10;99.90
23685;DHT22;12020;51.384;6.908;2024-01-11T17:37:31;1.00;99.90
23685;DHT22;12020;51.384;6.908;2024-01-11T17:40:02;1.00;99.90
23685;DHT22;12020;51.384;6.908;2024-01-11T17:42:44;1.00;99.90
23685;DHT22;12020;51.384;6.908;2024-01-11T17:45:17;1.10;99.90
23685;DHT22;12020;51.384;6.908;2024-01-11T17:47:52;1.10;99.90
23685;DHT22;12020;51.384;6.908;2024-01-11T17:51:00;1.10;99.90
23685;DHT22;12020;51.384;6.908;2024-01-11T17:53:55;1.10;99.90
23685;DHT22;12020;51.384;6.908;2024-01-11T17:56:39;1.10;99.90
23685;DHT22;12020;51.384;6.908;2024-01-11T18:00:03;1.10;99.90
23685;DHT22;12020;51.384;6.908;2024-01-11T18:02:38;1.10;99.90
23685;DHT22;12020;51.384;6.908;2024-01-11T18:05:04;1.10;99.90
23685;DHT22;12020;51.384;6.908;2024-01-11T18:07:34;1.10;99.90
23685;DHT22;12020;51.384;6.908;2024-01-11T18:10:35;1.20;99.90
23685;DHT22;12020;51.384;6.908;2024-01-11T19:24:26;1.00;99.90
23685;DHT22;12020;51.384;6.908;2024-01-11T19:26:53;1.10;99.90
23685;DHT22;12020;51.384;6.908;2024-01-11T19:31:54;1.00;99.90
23685;DHT22;12020;51.384;6.908;2024-01-11T19:34:21;1.00;99.90
23685;DHT22;12020;51.384;6.908;2024-01-11T19:36:48;1.00;99.90
23685;DHT22;12020;51.384;6.908;2024-01-11T19:39:14;1.20;99.90
23685;DHT22;12020;51.384;6.908;2024-01-11T19:41:40;1.30;99.90
23685;DHT22;12020;51.384;6.908;2024-01-11T19:44:08;1.10;99.90
23685;DHT22;12020;51.384;6.908;2024-01-11T19:46:37;1.00;99.90
23685;DHT22;12020;51.384;6.908;2024-01-11T19:49:10;1.00;99.90
23685;DHT22;12020;51.384;6.908;2024-01-11T19:51:37;1.30;99.90
23685;DHT22;12020;51.384;6.908;2024-01-11T19:54:06;1.10;99.90
23685;DHT22;12020;51.384;6.908;2024-01-11T20:22:42;1.10;99.90
23685;DHT22;12020;51.384;6.908;2024-01-11T20:25:29;1.30;99.90
23685;DHT22;12020;51.384;6.908;2024-01-11T20:27:55;1.30;99.90
23685;DHT22;12020;51.384;6.908;2024-01-11T20:30:23;1.20;99.90
23685;DHT22;12020;51.384;6.908;2024-01-11T20:32:51;1.10;99.90
23685;DHT22;12020;51.384;6.908;2024-01-11T20:35:20;1.10;99.90
23685;DHT22;12020;51.384;6.908;2024-01-11T20:37:47;1.10;99.90
23685;DHT22;12020;51.384;6.908;2024-01-11T20:40:13;1.10;99.90
23685;DHT22;12020;51.384;6.908;2024-01-11T20:42:41;1.10;99.90
23685;DHT22;12020;51.384;6.908;2024-01-11T20:48:33;1.10;99.90
23685;DHT22;12020;51.384;6.908;2024-01-11T21:00:28;1.20;99.90
23685;DHT22;12020;51.384;6.908;2024-01-11T21:02:55;1.20;99.90
23685;DHT22;12020;51.384;6.908;2024-01-11T21:08:46;1.20;99.90
23685;DHT22;12020;51.384;6.908;2024-01-11T22:08:40;1.20;99.90
23685;DHT22;12020;51.384;6.908;2024-01-11T22:11:11;1.20;99.90
23685;DHT22;12020;51.384;6.908;2024-01-11T22:13:37;1.20;99.90
23685;DHT22;12020;51.384;6.908;2024-01-11T22:19:26;1.30;99.90
23685;DHT22;12020;51.384;6.908;2024-01-11T22:21:52;1.40;99.90
23685;DHT22;12020;51.384;6.908;2024-01-11T22:24:18;1.30;99.90
23685;DHT22;12020;51.384;6.908;2024-01-11T22:26:44;1.20;99.90
23685;DHT22;12020;51.384;6.908;2024-01-11T22:29:14;1.30;99.90
23685;DHT22;12020;51.384;6.908;2024-01-11T22:44:00;1.30;99.90
23685;DHT22;12020;51.384;6.908;2024-01-11T22:46:26;1.40;99.90
23685;DHT22;12020;51.384;6.908;2024-01-11T22:48:54;1.50;99.90
23685;DHT22;12020;51.384;6.908;2024-01-11T22:51:22;1.30;99.90
23685;DHT22;12020;51.384;6.908;2024-01-11T22:53:49;1.40;99.90
23685;DHT22;12020;51.384;6.908;2024-01-11T22:56:17;1.30;99.90
23685;DHT22;12020;51.384;6.908;2024-01-11T22:58:50;1.20;99.90
23685;DHT22;12020;51.384;6.908;2024-01-11T23:01:27;1.30;99.90
23685;DHT22;12020;51.384;6.908;2024-01-11T23:04:17;1.40;99.90
23685;DHT22;12020;51.384;6.908;2024-01-11T23:06:50;1.30;99.90
23685;DHT22;12020;51.384;6.908;2024-01-11T23:09:17;1.30;99.90
23685;DHT22;12020;51.384;6.908;2024-01-11T23:11:44;1.30;99.90
23685;DHT22;12020;51.384;6.908;2024-01-11T23:14:20;1.30;99.90
23685;DHT22;12020;51.384;6.908;2024-01-11T23:17:02;1.50;99.90
23685;DHT22;12020;51.384;6.908;2024-01-11T23:19:31;1.30;99.90
23685;DHT22;12020;51.384;6.908;2024-01-11T23:22:03;1.30;99.90
23685;DHT22;12020;51.384;6.908;2024-01-11T23:30:07;1.40;99.90
23685;DHT22;12020;51.384;6.908;2024-01-11T23:32:39;1.40;99.90
23685;DHT22;12020;51.384;6.908;2024-01-11T23:35:08;1.50;99.90
23685;DHT22;12020;51.384;6.908;2024-01-11T23:37:41;1.40;99.90
23685;DHT22;12020;51.384;6.908;2024-01-11T23:49:06;1.40;99.90
23685;DHT22;12020;51.384;6.908;2024-01-11T23:51:33;1.40;99.90
23685;DHT22;12020;51.384;6.908;2024-01-11T23:54:04;1.60;99.90
23685;DHT22;12020;51.384;6.908;2024-01-11T23:56:30;1.30;99.90
23685;DHT22;12020;51.384;6.908;2024-01-11T23:58:56;1.40;99.90
